createdAt,value
2022-12-25T00:00:50.640Z,150423.00
2022-12-25T00:03:16.742Z,150472.25
2022-12-25T00:05:42.700Z,150489.91
2022-12-25T00:08:09.392Z,150488.66
2022-12-25T00:10:39.827Z,150488.66
2022-12-25T00:13:10.396Z,150500.00
2022-12-25T00:15:39.793Z,150510.09
2022-12-25T00:18:06.011Z,150487.34
2022-12-25T00:20:32.009Z,150481.06
2022-12-25T00:22:57.901Z,150491.19
2022-12-25T00:25:23.749Z,150472.25
2022-12-25T00:27:49.650Z,150487.34
2022-12-25T00:30:15.485Z,150503.75
2022-12-25T00:32:41.466Z,150506.34
2022-12-25T00:35:08.247Z,150484.84
2022-12-25T00:37:34.043Z,150487.34
2022-12-25T00:39:59.961Z,150493.69
2022-12-25T00:42:27.764Z,150510.09
2022-12-25T00:44:53.679Z,150503.75
2022-12-25T00:47:19.609Z,150508.84
2022-12-25T00:49:45.514Z,150508.84
2022-12-25T00:52:11.437Z,150536.59
2022-12-25T00:54:37.355Z,150532.81
2022-12-25T00:57:03.494Z,150520.19
2022-12-25T00:59:33.648Z,150518.91
2022-12-25T01:02:18.508Z,150508.84
2022-12-25T01:04:44.758Z,150531.56
2022-12-25T01:07:10.983Z,150546.72
2022-12-25T01:09:55.956Z,150537.84
2022-12-25T01:12:21.996Z,150517.66
2022-12-25T01:14:48.029Z,150503.75
2022-12-25T01:17:13.802Z,150511.38
2022-12-25T01:19:39.891Z,150518.91
2022-12-25T01:22:05.696Z,150529.03
2022-12-25T01:24:31.797Z,150554.28
2022-12-25T01:26:57.633Z,150550.50
2022-12-25T01:29:23.486Z,150546.72
2022-12-25T01:31:49.407Z,150527.78
2022-12-25T01:34:15.272Z,150534.06
2022-12-25T01:36:41.755Z,150535.34
2022-12-25T01:39:07.774Z,150544.19
2022-12-25T01:41:33.945Z,150554.28
2022-12-25T01:44:15.108Z,150515.16
2022-12-25T01:46:42.589Z,150498.72
2022-12-25T01:49:13.940Z,150493.69
2022-12-25T01:51:45.474Z,150505.03
2022-12-25T01:54:16.126Z,150526.53
2022-12-25T01:56:43.441Z,150517.66
2022-12-25T01:59:12.067Z,150535.34
2022-12-25T02:01:38.207Z,150529.03
2022-12-25T02:04:12.076Z,150544.19
2022-12-25T02:06:38.674Z,150537.84
2022-12-25T02:09:04.558Z,150537.84
2022-12-25T02:11:49.035Z,150537.84
2022-12-25T02:14:15.229Z,150540.38
2022-12-25T02:16:56.719Z,150536.59
2022-12-25T02:19:49.201Z,150537.84
2022-12-25T02:22:42.785Z,150535.34
2022-12-25T02:25:47.468Z,150546.72
2022-12-25T02:28:33.824Z,150542.94
2022-12-25T02:31:15.411Z,150569.44
2022-12-25T02:34:04.846Z,150579.56
2022-12-25T02:36:53.180Z,150534.06
2022-12-25T02:39:42.842Z,150544.19
2022-12-25T02:42:13.001Z,150570.69
2022-12-25T02:45:01.024Z,150575.72
2022-12-25T02:47:46.224Z,150560.63
2022-12-25T02:50:34.227Z,150551.75
2022-12-25T02:53:21.083Z,150571.94
2022-12-25T02:56:08.003Z,150541.63
2022-12-25T02:58:57.419Z,150553.00
2022-12-25T03:01:46.931Z,150568.19
2022-12-25T03:04:35.873Z,150593.41
2022-12-25T03:07:11.044Z,150566.91
2022-12-25T03:10:03.449Z,150564.41
2022-12-25T03:12:40.088Z,150584.59
2022-12-25T03:15:26.567Z,150565.66
2022-12-25T03:17:53.059Z,150593.41
2022-12-25T03:20:37.355Z,150580.81
2022-12-25T03:23:21.929Z,150589.63
2022-12-25T03:26:06.312Z,150601.00
2022-12-25T03:28:32.166Z,150547.97
2022-12-25T03:31:11.662Z,150561.88
2022-12-25T03:34:27.000Z,150547.97
2022-12-25T03:37:04.641Z,150583.34
2022-12-25T03:39:56.490Z,150606.06
2022-12-25T03:42:42.449Z,150584.59
2022-12-25T03:45:30.192Z,150563.13
2022-12-25T03:48:15.120Z,150561.88
2022-12-25T03:51:27.744Z,150555.53
2022-12-25T03:54:20.339Z,150560.63
2022-12-25T03:57:05.784Z,150578.28
2022-12-25T03:59:50.336Z,150579.56
2022-12-25T04:02:35.098Z,150593.41
2022-12-25T04:05:19.570Z,150580.81
2022-12-25T04:08:04.150Z,150570.69
2022-12-25T04:10:48.489Z,150601.00
2022-12-25T04:13:33.512Z,150588.38
2022-12-25T04:16:17.887Z,150594.66
2022-12-25T04:19:02.660Z,150583.34
2022-12-25T04:21:46.915Z,150588.38
2022-12-25T04:24:38.817Z,150583.34
2022-12-25T04:27:22.882Z,150601.00
2022-12-25T04:30:07.735Z,150584.59
2022-12-25T04:32:52.195Z,150598.50
2022-12-25T04:35:36.208Z,150616.16
2022-12-25T04:38:02.024Z,150587.13
2022-12-25T04:40:27.990Z,150584.59
2022-12-25T04:42:53.851Z,150583.34
2022-12-25T04:45:19.824Z,150593.41
2022-12-25T04:47:45.772Z,150594.66
2022-12-25T04:50:11.825Z,150590.88
2022-12-25T04:52:39.112Z,150571.94
2022-12-25T04:55:06.642Z,150579.56
2022-12-25T04:57:33.061Z,150584.59
2022-12-25T04:59:58.901Z,150582.06
2022-12-25T05:02:24.984Z,150588.38
2022-12-25T05:04:51.055Z,150580.81
2022-12-25T05:07:17.016Z,150569.44
2022-12-25T05:09:42.930Z,150613.59
2022-12-25T05:12:09.756Z,150598.50
2022-12-25T05:14:35.795Z,150578.28
2022-12-25T05:17:01.612Z,150583.34
2022-12-25T05:19:27.842Z,150574.47
2022-12-25T05:21:54.219Z,150569.44
2022-12-25T05:24:20.310Z,150551.75
2022-12-25T05:26:46.174Z,150569.44
2022-12-25T05:29:11.952Z,150574.47
2022-12-25T05:31:37.794Z,150582.06
2022-12-25T05:34:03.625Z,150570.69
2022-12-25T05:36:29.489Z,150584.59
2022-12-25T05:38:55.311Z,150551.75
2022-12-25T05:41:21.123Z,150554.28
2022-12-25T05:43:47.110Z,150571.94
2022-12-25T05:46:13.711Z,150563.13
2022-12-25T05:48:39.726Z,150573.22
2022-12-25T05:51:07.991Z,150563.13
2022-12-25T05:53:34.507Z,150561.88
2022-12-25T05:56:02.701Z,150574.47
2022-12-25T05:58:30.056Z,150602.28
2022-12-25T06:00:56.041Z,150589.63
2022-12-25T06:03:22.733Z,150566.91
2022-12-25T06:05:48.994Z,150583.34
2022-12-25T06:08:14.780Z,150555.53
2022-12-25T06:10:40.751Z,150571.94
2022-12-25T06:13:06.585Z,150577.00
2022-12-25T06:15:32.501Z,150550.50
2022-12-25T06:18:01.684Z,150542.94
2022-12-25T06:20:27.647Z,150526.53
2022-12-25T06:22:53.373Z,150531.56
2022-12-25T06:25:19.260Z,150540.38
2022-12-25T06:27:45.182Z,150555.53
2022-12-25T06:30:11.277Z,150564.41
2022-12-25T06:32:37.105Z,150564.41
2022-12-25T06:35:03.122Z,150564.41
2022-12-25T06:37:29.277Z,150560.63
2022-12-25T06:39:55.075Z,150559.31
2022-12-25T06:42:21.002Z,150574.47
2022-12-25T06:44:46.807Z,150588.38
2022-12-25T06:47:12.645Z,150554.28
2022-12-25T06:49:38.453Z,150571.94
2022-12-25T06:52:04.451Z,150592.16
2022-12-25T06:54:30.334Z,150580.81
2022-12-25T06:56:56.323Z,150602.28
2022-12-25T06:59:22.130Z,150554.28
2022-12-25T07:01:56.625Z,150595.97
2022-12-25T07:04:34.761Z,150593.41
2022-12-25T07:07:08.078Z,150579.56
2022-12-25T07:09:35.022Z,150584.59
2022-12-25T07:12:05.028Z,150568.19
2022-12-25T07:14:31.021Z,150592.16
2022-12-25T07:16:56.928Z,150568.19
2022-12-25T07:19:22.986Z,150607.31
2022-12-25T07:21:48.863Z,150604.78
2022-12-25T07:24:21.886Z,150587.13
2022-12-25T07:26:48.479Z,150598.50
2022-12-25T07:29:14.391Z,150617.44
2022-12-25T07:31:40.313Z,150606.06
2022-12-25T07:34:06.130Z,150619.94
2022-12-25T07:36:31.984Z,150621.22
2022-12-25T07:38:57.829Z,150631.28
2022-12-25T07:41:23.790Z,150618.69
2022-12-25T07:43:53.361Z,150638.91
2022-12-25T07:46:20.698Z,150598.50
2022-12-25T07:48:46.777Z,150592.16
2022-12-25T07:51:15.364Z,150597.22
2022-12-25T07:53:42.225Z,150616.16
2022-12-25T07:56:13.035Z,150613.59
2022-12-25T07:58:39.032Z,150633.84
2022-12-25T08:01:08.199Z,150619.94
2022-12-25T08:03:34.764Z,150606.06
2022-12-25T08:06:01.566Z,150638.91
2022-12-25T08:08:27.856Z,150621.22
2022-12-25T08:10:53.792Z,150625.00
2022-12-25T08:13:20.090Z,150626.25
2022-12-25T08:15:46.194Z,150631.28
2022-12-25T08:18:12.248Z,150631.28
2022-12-25T08:20:38.135Z,150630.03
2022-12-25T08:23:04.339Z,150628.75
2022-12-25T08:25:30.444Z,150614.91
2022-12-25T08:27:56.493Z,150641.41
2022-12-25T08:30:22.681Z,150646.44
2022-12-25T08:32:48.527Z,150641.41
2022-12-25T08:35:14.397Z,150636.38
2022-12-25T08:37:40.372Z,150636.38
2022-12-25T08:40:06.628Z,150651.53
2022-12-25T08:42:32.668Z,150647.72
2022-12-25T08:44:58.547Z,150640.16
2022-12-25T08:47:24.328Z,150636.38
2022-12-25T08:49:50.375Z,150632.59
2022-12-25T08:52:16.658Z,150657.84
2022-12-25T08:54:42.517Z,150667.97
2022-12-25T08:57:08.387Z,150656.56
2022-12-25T08:59:34.263Z,150676.78
2022-12-25T09:02:00.337Z,150691.94
2022-12-25T09:04:26.432Z,150723.53
2022-12-25T09:06:52.370Z,150665.38
2022-12-25T09:09:18.170Z,150667.97
2022-12-25T09:11:44.087Z,150657.84
2022-12-25T09:14:10.082Z,150669.22
2022-12-25T09:16:36.035Z,150662.88
2022-12-25T09:19:01.923Z,150670.47
2022-12-25T09:21:28.013Z,150657.84
2022-12-25T09:23:54.015Z,150664.13
2022-12-25T09:26:20.081Z,150651.53
2022-12-25T09:28:51.346Z,150628.75
2022-12-25T09:31:19.824Z,150640.16
2022-12-25T09:33:45.839Z,150650.28
2022-12-25T09:36:11.749Z,150661.59
2022-12-25T09:38:37.899Z,150621.22
2022-12-25T09:41:08.491Z,150664.13
2022-12-25T09:43:44.736Z,150654.06
2022-12-25T09:46:16.554Z,150646.44
2022-12-25T09:48:58.526Z,150679.28
2022-12-25T09:51:28.229Z,150642.66
2022-12-25T09:54:19.561Z,150650.28
2022-12-25T09:56:45.715Z,150662.88
2022-12-25T09:59:24.162Z,150640.16
2022-12-25T10:01:59.300Z,150662.88
2022-12-25T10:04:51.166Z,150666.66
2022-12-25T10:07:31.607Z,150642.66
2022-12-25T10:10:40.251Z,150645.19
2022-12-25T10:13:15.624Z,150670.47
2022-12-25T10:16:03.847Z,150662.88
2022-12-25T10:18:44.861Z,150652.78
2022-12-25T10:21:17.632Z,150671.75
2022-12-25T10:24:10.596Z,150671.75
2022-12-25T10:26:36.534Z,150673.00
2022-12-25T10:29:13.581Z,150704.59
2022-12-25T10:31:41.292Z,150694.47
2022-12-25T10:34:11.581Z,150681.81
2022-12-25T10:36:37.735Z,150669.22
2022-12-25T10:39:04.268Z,150654.06
2022-12-25T10:41:49.330Z,150686.91
2022-12-25T10:44:23.543Z,150702.03
2022-12-25T10:46:52.227Z,150727.31
2022-12-25T10:49:21.920Z,150713.41
2022-12-25T10:51:48.242Z,150728.56
2022-12-25T10:54:32.169Z,150727.31
2022-12-25T10:57:01.329Z,150719.69
2022-12-25T10:59:30.177Z,150743.75
2022-12-25T11:02:04.435Z,150719.69
2022-12-25T11:04:34.926Z,150705.84
2022-12-25T11:07:06.007Z,150726.06
2022-12-25T11:09:33.077Z,150750.03
2022-12-25T11:12:00.221Z,150739.97
2022-12-25T11:14:27.538Z,150748.78
2022-12-25T11:16:53.587Z,150728.56
2022-12-25T11:19:39.634Z,150756.34
2022-12-25T11:22:17.712Z,150763.94
2022-12-25T11:24:43.614Z,150753.81
2022-12-25T11:27:28.560Z,150736.13
2022-12-25T11:30:01.017Z,150752.56
2022-12-25T11:32:41.259Z,150755.06
2022-12-25T11:35:15.568Z,150737.38
2022-12-25T11:37:45.428Z,150738.66
2022-12-25T11:40:16.829Z,150734.88
2022-12-25T11:42:53.424Z,150733.59
2022-12-25T11:45:27.522Z,150739.97
2022-12-25T11:47:56.440Z,150747.50
2022-12-25T11:50:30.088Z,150750.03
2022-12-25T11:53:01.331Z,150742.47
2022-12-25T11:56:01.014Z,150742.47
2022-12-25T11:58:35.467Z,150755.06
2022-12-25T12:01:12.880Z,150771.50
2022-12-25T12:03:40.785Z,150799.31
2022-12-25T12:06:31.041Z,150799.31
2022-12-25T12:09:11.448Z,150791.72
2022-12-25T12:11:46.028Z,150819.53
2022-12-25T12:14:26.039Z,150814.50
2022-12-25T12:16:52.061Z,150813.22
2022-12-25T12:19:28.729Z,150818.28
2022-12-25T12:22:03.370Z,150792.97
2022-12-25T12:24:36.541Z,150780.38
2022-12-25T12:27:20.274Z,150789.19
2022-12-25T12:29:51.342Z,150781.63
2022-12-25T12:32:40.192Z,150795.53
2022-12-25T12:35:20.207Z,150810.66
2022-12-25T12:37:50.476Z,150814.50
2022-12-25T12:40:32.434Z,150808.16
2022-12-25T12:42:58.675Z,150827.09
2022-12-25T12:45:30.565Z,150815.75
2022-12-25T12:47:57.444Z,150825.84
2022-12-25T12:50:36.693Z,150843.53
2022-12-25T12:53:21.078Z,150853.66
2022-12-25T12:55:47.478Z,150841.00
2022-12-25T12:58:32.496Z,150853.66
2022-12-25T13:01:20.872Z,150858.69
2022-12-25T13:04:11.511Z,150853.66
2022-12-25T13:06:56.727Z,150863.75
2022-12-25T13:09:34.434Z,150868.84
2022-12-25T13:12:07.642Z,150872.63
2022-12-25T13:14:35.423Z,150880.19
2022-12-25T13:17:01.402Z,150885.25
2022-12-25T13:19:28.457Z,150868.84
2022-12-25T13:21:57.388Z,150884.00
2022-12-25T13:24:26.193Z,150873.88
2022-12-25T13:26:53.064Z,150886.53
2022-12-25T13:29:37.343Z,150906.78
2022-12-25T13:32:05.733Z,150881.44
2022-12-25T13:34:42.458Z,150886.53
2022-12-25T13:37:12.998Z,150885.25
2022-12-25T13:40:07.496Z,150900.44
2022-12-25T13:42:36.093Z,150908.06
2022-12-25T13:45:17.889Z,150921.97
2022-12-25T13:47:48.685Z,150920.69
2022-12-25T13:50:30.423Z,150901.75
2022-12-25T13:52:58.328Z,150909.31
2022-12-25T13:55:27.336Z,150909.31
2022-12-25T13:57:57.267Z,150923.22
2022-12-25T14:00:43.402Z,150910.56
2022-12-25T14:03:18.830Z,150916.88
2022-12-25T14:05:44.711Z,150904.28
2022-12-25T14:08:23.645Z,150928.28
2022-12-25T14:10:51.840Z,150929.53
2022-12-25T14:13:21.833Z,150930.78
2022-12-25T14:15:49.635Z,150937.09
2022-12-25T14:18:17.555Z,150930.78
2022-12-25T14:21:04.262Z,150934.56
2022-12-25T14:23:43.290Z,150932.06
2022-12-25T14:26:16.999Z,150921.97
2022-12-25T14:28:51.125Z,150934.56
2022-12-25T14:31:18.112Z,150949.75
2022-12-25T14:33:45.313Z,150929.53
2022-12-25T14:36:13.340Z,150937.09
2022-12-25T14:38:41.797Z,150939.66
2022-12-25T14:41:32.433Z,150935.84
2022-12-25T14:44:00.810Z,150944.72
2022-12-25T14:46:29.693Z,150956.09
2022-12-25T14:49:03.839Z,150969.97
2022-12-25T14:51:32.110Z,150976.31
2022-12-25T14:54:03.572Z,150957.38
2022-12-25T14:56:38.511Z,150963.66
2022-12-25T14:59:07.007Z,150956.09
2022-12-25T15:01:36.019Z,150973.81
2022-12-25T15:04:12.555Z,150983.88
2022-12-25T15:06:40.788Z,150991.50
2022-12-25T15:09:15.323Z,150994.03
2022-12-25T15:11:41.251Z,151007.91
2022-12-25T15:14:07.145Z,150978.84
2022-12-25T15:16:45.104Z,150997.81
2022-12-25T15:19:21.920Z,150983.88
2022-12-25T15:21:51.358Z,151010.47
2022-12-25T15:24:17.713Z,151000.31
2022-12-25T15:26:43.617Z,151007.91
2022-12-25T15:29:09.647Z,151006.63
2022-12-25T15:31:37.351Z,150997.81
2022-12-25T15:34:05.988Z,150995.28
2022-12-25T15:36:33.244Z,150991.50
2022-12-25T15:38:59.815Z,150982.63
2022-12-25T15:41:51.856Z,150997.81
2022-12-25T15:44:17.687Z,151001.59
2022-12-25T15:46:45.112Z,150992.75
2022-12-25T15:49:12.085Z,150983.88
2022-12-25T15:51:39.228Z,151007.91
2022-12-25T15:54:05.466Z,150992.75
2022-12-25T15:56:38.035Z,150987.66
2022-12-25T15:59:03.919Z,150982.63
2022-12-25T16:01:29.917Z,150994.03
2022-12-25T16:03:55.967Z,151006.63
2022-12-25T16:06:21.961Z,151002.84
2022-12-25T16:08:47.916Z,150997.81
2022-12-25T16:11:13.793Z,151006.63
2022-12-25T16:13:40.041Z,150992.75
2022-12-25T16:16:06.356Z,150988.94
2022-12-25T16:18:32.305Z,150996.53
2022-12-25T16:20:59.052Z,151000.31
2022-12-25T16:23:25.093Z,150996.53
2022-12-25T16:25:51.425Z,150986.41
2022-12-25T16:28:17.369Z,151010.47
2022-12-25T16:30:43.601Z,151007.91
2022-12-25T16:33:10.417Z,151002.84
2022-12-25T16:35:36.376Z,150997.81
2022-12-25T16:38:02.672Z,151009.16
2022-12-25T16:40:28.764Z,151026.84
2022-12-25T16:42:56.193Z,151026.84
2022-12-25T16:45:22.438Z,151025.59
2022-12-25T16:47:48.674Z,151018.03
2022-12-25T16:50:15.628Z,151020.56
2022-12-25T16:52:41.593Z,151030.69
2022-12-25T16:55:08.320Z,151021.81
2022-12-25T16:57:34.174Z,151016.75
2022-12-25T17:00:00.104Z,151019.28
2022-12-25T17:02:26.175Z,151035.72
2022-12-25T17:04:52.125Z,151053.44
2022-12-25T17:07:18.180Z,151049.66
2022-12-25T17:09:47.109Z,151038.25
2022-12-25T17:12:13.048Z,151040.78
2022-12-25T17:14:38.906Z,151031.94
2022-12-25T17:17:04.908Z,151039.50
2022-12-25T17:19:31.085Z,151048.38
2022-12-25T17:21:59.037Z,151030.69
2022-12-25T17:24:26.007Z,151038.25
2022-12-25T17:26:52.240Z,151023.06
2022-12-25T17:29:22.093Z,151028.16
2022-12-25T17:31:48.734Z,151025.59
2022-12-25T17:34:14.588Z,151048.38
2022-12-25T17:36:40.992Z,151044.56
2022-12-25T17:39:06.911Z,151033.22
2022-12-25T17:41:32.851Z,151024.34
2022-12-25T17:43:58.739Z,151014.25
2022-12-25T17:46:27.123Z,151020.56
2022-12-25T17:48:55.160Z,151001.59
2022-12-25T17:51:23.942Z,151004.09
2022-12-25T17:53:52.534Z,151014.25
2022-12-25T17:56:19.499Z,151021.81
2022-12-25T17:58:53.042Z,151016.75
2022-12-25T18:01:20.408Z,151031.94
2022-12-25T18:03:46.753Z,151033.22
2022-12-25T18:06:16.726Z,151033.22
2022-12-25T18:08:44.077Z,151025.59
2022-12-25T18:11:19.404Z,151021.81
2022-12-25T18:13:49.078Z,151021.81
2022-12-25T18:16:16.642Z,151037.00
2022-12-25T18:18:49.557Z,151025.59
2022-12-25T18:21:18.011Z,151033.22
2022-12-25T18:23:43.892Z,151020.56
2022-12-25T18:26:11.401Z,151020.56
2022-12-25T18:28:37.939Z,151012.97
2022-12-25T18:31:09.634Z,151034.47
2022-12-25T18:33:35.841Z,151038.25
2022-12-25T18:36:02.701Z,151028.16
2022-12-25T18:38:28.674Z,151015.50
2022-12-25T18:40:55.373Z,151023.06
2022-12-25T18:43:21.375Z,151038.25
2022-12-25T18:46:07.173Z,151031.94
2022-12-25T18:48:34.468Z,151039.50
2022-12-25T18:51:04.044Z,151023.06
2022-12-25T18:53:30.674Z,151021.81
2022-12-25T18:56:02.897Z,151019.28
2022-12-25T18:58:28.822Z,151026.84
2022-12-25T19:00:54.792Z,151010.47
2022-12-25T19:03:21.105Z,151043.28
2022-12-25T19:05:47.176Z,151025.59
2022-12-25T19:08:13.237Z,151014.25
2022-12-25T19:10:39.400Z,151030.69
2022-12-25T19:13:05.644Z,151033.22
2022-12-25T19:15:32.270Z,151025.59
2022-12-25T19:17:58.283Z,151034.47
2022-12-25T19:20:24.249Z,151030.69
2022-12-25T19:22:50.173Z,151042.03
2022-12-25T19:25:17.933Z,151039.50
2022-12-25T19:27:44.208Z,151033.22
2022-12-25T19:30:11.197Z,151048.38
2022-12-25T19:32:37.120Z,151024.34
2022-12-25T19:35:03.667Z,151031.94
2022-12-25T19:37:30.813Z,151047.13
2022-12-25T19:39:56.842Z,151029.44
2022-12-25T19:42:22.986Z,151028.16
2022-12-25T19:44:49.204Z,151057.22
2022-12-25T19:47:15.195Z,151050.91
2022-12-25T19:49:43.650Z,151020.56
2022-12-25T19:52:12.047Z,151016.75
2022-12-25T19:54:37.931Z,151029.44
2022-12-25T19:57:03.949Z,151020.56
2022-12-25T19:59:29.889Z,151037.00
2022-12-25T20:01:57.174Z,151019.28
2022-12-25T20:04:27.729Z,151049.66
2022-12-25T20:06:57.691Z,151029.44
2022-12-25T20:09:24.079Z,151030.69
2022-12-25T20:11:52.366Z,151016.75
2022-12-25T20:14:20.710Z,151040.78
2022-12-25T20:16:49.662Z,151025.59
2022-12-25T20:19:19.690Z,151019.28
2022-12-25T20:21:48.094Z,151024.34
2022-12-25T20:24:15.289Z,151029.44
2022-12-25T20:26:47.977Z,151042.03
2022-12-25T20:29:16.840Z,151028.16
2022-12-25T20:31:46.183Z,151034.47
2022-12-25T20:34:12.450Z,151030.69
2022-12-25T20:36:44.789Z,151011.72
2022-12-25T20:39:14.936Z,151021.81
2022-12-25T20:41:42.909Z,151020.56
2022-12-25T20:44:15.471Z,151040.78
2022-12-25T20:46:48.813Z,151028.16
2022-12-25T20:49:15.202Z,151030.69
2022-12-25T20:51:41.094Z,151044.56
2022-12-25T20:54:08.935Z,151029.44
2022-12-25T20:56:35.845Z,151049.66
2022-12-25T20:59:02.179Z,151052.19
2022-12-25T21:01:30.001Z,151055.94
2022-12-25T21:03:56.651Z,151061.00
2022-12-25T21:06:23.085Z,151039.50
2022-12-25T21:08:48.992Z,151059.75
2022-12-25T21:11:15.236Z,151054.69
2022-12-25T21:13:42.816Z,151040.78
2022-12-25T21:16:13.519Z,151033.22
2022-12-25T21:18:39.751Z,151069.88
2022-12-25T21:21:06.815Z,151076.19
2022-12-25T21:23:34.607Z,151062.25
2022-12-25T21:26:12.293Z,151042.03
2022-12-25T21:28:38.111Z,151058.47
2022-12-25T21:31:05.480Z,151062.25
2022-12-25T21:33:50.525Z,151050.91
2022-12-25T21:36:18.794Z,151072.41
2022-12-25T21:38:44.899Z,151069.88
2022-12-25T21:41:13.288Z,151057.22
2022-12-25T21:43:39.876Z,151062.25
2022-12-25T21:46:11.203Z,151069.88
2022-12-25T21:48:37.524Z,151085.06
2022-12-25T21:51:31.514Z,151092.63
2022-12-25T21:53:57.838Z,151109.06
2022-12-25T21:56:24.894Z,151071.13
2022-12-25T21:58:50.984Z,151050.91
2022-12-25T22:01:17.119Z,151066.09
2022-12-25T22:03:43.941Z,151077.44
2022-12-25T22:06:29.596Z,151047.13
2022-12-25T22:08:56.386Z,151035.72
2022-12-25T22:11:55.349Z,151031.94
2022-12-25T22:14:51.196Z,151033.22
2022-12-25T22:17:44.172Z,151054.69
2022-12-25T22:20:13.549Z,151047.13
2022-12-25T22:22:39.408Z,151071.13
2022-12-25T22:25:06.279Z,151073.66
2022-12-25T22:27:33.959Z,151063.56
2022-12-25T22:30:00.905Z,151049.66
2022-12-25T22:32:28.522Z,151043.28
2022-12-25T22:34:54.439Z,151038.25
2022-12-25T22:37:20.578Z,151039.50
2022-12-25T22:39:46.728Z,151061.00
2022-12-25T22:42:12.979Z,151067.34
2022-12-25T22:44:38.831Z,151059.75
2022-12-25T22:47:05.278Z,151057.22
2022-12-25T22:49:31.181Z,151044.56
2022-12-25T22:51:57.409Z,151038.25
2022-12-25T22:54:23.871Z,151048.38
2022-12-25T22:56:51.935Z,151030.69
2022-12-25T22:59:20.339Z,151048.38
2022-12-25T23:01:46.423Z,151074.91
2022-12-25T23:04:12.588Z,151050.91
2022-12-25T23:06:39.247Z,151058.47
2022-12-25T23:09:07.065Z,151054.69
2022-12-25T23:11:34.749Z,151050.91
2022-12-25T23:14:19.297Z,151052.19
2022-12-25T23:16:45.198Z,151030.69
2022-12-25T23:19:32.678Z,151064.84
2022-12-25T23:22:17.594Z,151053.44
2022-12-25T23:25:09.723Z,151048.38
2022-12-25T23:27:35.568Z,151023.06
2022-12-25T23:30:01.531Z,151030.69
2022-12-25T23:32:27.585Z,151033.22
2022-12-25T23:34:54.125Z,151067.34
2022-12-25T23:37:20.810Z,151048.38
2022-12-25T23:39:47.502Z,151015.50
2022-12-25T23:42:13.361Z,151044.56
2022-12-25T23:44:39.259Z,151024.34
2022-12-25T23:47:05.261Z,151033.22
2022-12-25T23:49:31.260Z,151044.56
2022-12-25T23:51:57.239Z,151020.56
2022-12-25T23:54:26.348Z,151025.59
2022-12-25T23:56:53.295Z,151028.16
2022-12-25T23:59:19.373Z,151010.47
